createdAt,value
2019-02-14T00:01:15.446Z,33.80
2019-02-14T00:03:43.723Z,34.96
2019-02-14T00:06:11.984Z,35.92
2019-02-14T00:08:40.245Z,32.93
2019-02-14T00:11:08.506Z,35.63
2019-02-14T00:13:36.773Z,39.10
2019-02-14T00:16:05.034Z,35.10
2019-02-14T00:18:33.317Z,34.13
2019-02-14T00:21:01.584Z,40.43
2019-02-14T00:23:29.855Z,34.33
2019-02-14T00:25:58.113Z,32.55
2019-02-14T00:28:26.386Z,38.23
2019-02-14T00:30:54.645Z,36.17
2019-02-14T00:33:22.898Z,38.30
2019-02-14T00:35:51.168Z,37.33
2019-02-14T00:38:19.423Z,34.07
2019-02-14T00:40:47.679Z,38.27
2019-02-14T00:43:15.942Z,38.20
2019-02-14T00:45:44.204Z,39.48
2019-02-14T00:48:12.490Z,37.70
2019-02-14T00:50:40.741Z,36.20
2019-02-14T00:53:08.994Z,37.90
2019-02-14T00:55:37.244Z,31.67
2019-02-14T00:58:05.505Z,33.37
2019-02-14T01:00:33.836Z,38.40
2019-02-14T01:03:02.113Z,36.25
2019-02-14T01:05:33.625Z,35.77
2019-02-14T01:08:00.400Z,34.03
2019-02-14T01:10:28.662Z,37.83
2019-02-14T01:12:56.932Z,38.63
2019-02-14T01:18:14.151Z,38.50
2019-02-14T01:20:42.405Z,36.33
2019-02-14T01:23:10.666Z,36.00
2019-02-14T01:25:38.925Z,36.68
2019-02-14T01:28:07.203Z,37.70
2019-02-14T01:30:35.461Z,37.90
2019-02-14T01:33:03.718Z,39.97
2019-02-14T01:35:31.993Z,32.63
2019-02-14T01:38:00.248Z,41.27
2019-02-14T01:40:28.508Z,46.57
2019-02-14T01:42:56.770Z,38.83
2019-02-14T01:45:25.043Z,39.88
2019-02-14T01:47:53.302Z,45.33
2019-02-14T01:50:21.572Z,36.20
2019-02-14T01:52:49.838Z,39.27
2019-02-14T01:55:18.102Z,45.60
2019-02-14T01:57:46.366Z,42.30
2019-02-14T02:03:03.752Z,41.13
2019-02-14T02:05:32.008Z,43.08
2019-02-14T02:08:00.279Z,40.67
2019-02-14T02:11:02.643Z,41.57
2019-02-14T02:13:30.918Z,46.17
2019-02-14T02:15:59.177Z,46.13
2019-02-14T02:21:16.407Z,43.50
2019-02-14T02:23:44.665Z,47.65
2019-02-14T02:26:13.092Z,41.13
2019-02-14T02:28:41.355Z,45.03
2019-02-14T02:31:09.623Z,49.70
2019-02-14T02:33:38.886Z,43.00
2019-02-14T02:36:07.163Z,44.73
2019-02-14T02:38:35.427Z,47.17
2019-02-14T02:41:03.685Z,44.60
2019-02-14T02:43:31.947Z,44.65
2019-02-14T02:46:00.235Z,44.27
2019-02-14T02:48:28.497Z,43.77
2019-02-14T02:50:56.755Z,47.27
2019-02-14T02:53:25.032Z,55.03
2019-02-14T02:55:53.292Z,57.27
2019-02-14T02:58:21.554Z,42.53
2019-02-14T03:00:49.816Z,45.00
2019-02-14T03:03:18.073Z,47.78
2019-02-14T03:05:46.338Z,48.00
2019-02-14T03:08:14.641Z,50.93
2019-02-14T03:10:42.888Z,45.20
2019-02-14T03:13:11.147Z,46.17
2019-02-14T03:15:52.252Z,49.83
2019-02-14T03:18:20.509Z,44.53
2019-02-14T03:20:48.773Z,48.80
2019-02-14T03:23:17.048Z,49.07
2019-02-14T03:25:45.305Z,55.60
2019-02-14T03:28:13.560Z,46.50
2019-02-14T03:33:20.783Z,47.43
2019-02-14T03:35:49.053Z,50.80
2019-02-14T03:38:17.311Z,48.37
2019-02-14T03:40:45.561Z,49.63
2019-02-14T03:43:13.829Z,50.20
2019-02-14T03:45:42.394Z,52.23
2019-02-14T03:48:10.665Z,44.65
2019-02-14T03:50:38.943Z,47.35
2019-02-14T03:53:07.210Z,49.55
2019-02-14T03:55:35.470Z,45.67
2019-02-14T03:58:03.741Z,42.80
2019-02-14T04:00:31.995Z,48.03
2019-02-14T04:03:00.256Z,55.73
2019-02-14T04:05:28.531Z,51.20
2019-02-14T04:07:56.775Z,51.00
2019-02-14T04:10:25.048Z,46.67
2019-02-14T04:12:53.307Z,48.93
2019-02-14T04:15:21.569Z,50.05
2019-02-14T04:17:49.831Z,50.60
2019-02-14T04:20:18.107Z,47.73
2019-02-14T04:22:46.368Z,45.27
2019-02-14T04:25:14.626Z,46.40
2019-02-14T04:27:42.876Z,51.83
2019-02-14T04:30:51.186Z,46.37
2019-02-14T04:33:19.443Z,53.00
2019-02-14T04:35:47.727Z,50.48
2019-02-14T04:38:15.978Z,48.87
2019-02-14T04:40:44.233Z,49.90
2019-02-14T04:43:12.508Z,53.33
2019-02-14T04:45:40.763Z,51.20
2019-02-14T04:48:09.027Z,46.53
2019-02-14T04:50:37.301Z,54.80
2019-02-14T04:53:05.567Z,52.77
2019-02-14T04:55:33.835Z,50.63
2019-02-14T04:58:02.094Z,55.30
2019-02-14T05:00:30.357Z,54.93
2019-02-14T05:02:58.614Z,49.30
2019-02-14T05:05:26.870Z,57.80
2019-02-14T05:07:55.127Z,53.33
2019-02-14T05:10:23.396Z,48.20
2019-02-14T05:12:51.658Z,49.20
2019-02-14T05:15:19.936Z,49.95
2019-02-14T05:17:48.194Z,54.40
2019-02-14T05:20:16.456Z,53.33
2019-02-14T05:22:44.720Z,52.30
2019-02-14T05:25:12.996Z,52.77
2019-02-14T05:27:41.236Z,53.20
2019-02-14T05:30:28.846Z,55.33
2019-02-14T05:32:57.108Z,51.03
2019-02-14T05:35:25.378Z,50.23
2019-02-14T05:37:53.640Z,57.03
2019-02-14T05:40:21.919Z,54.20
2019-02-14T05:42:50.186Z,48.35
2019-02-14T05:45:18.451Z,55.35
2019-02-14T05:47:46.703Z,53.17
2019-02-14T05:50:54.993Z,54.33
2019-02-14T05:53:23.284Z,56.90
2019-02-14T05:55:51.568Z,56.27
2019-02-14T05:58:19.841Z,53.37
2019-02-14T06:00:48.100Z,57.70
2019-02-14T06:03:16.371Z,54.73
2019-02-14T06:05:44.622Z,58.17
2019-02-14T06:08:12.896Z,52.60
2019-02-14T06:10:41.171Z,58.67
2019-02-14T06:13:09.428Z,54.33
2019-02-14T06:15:37.703Z,54.73
2019-02-14T06:18:05.975Z,57.88
2019-02-14T06:20:34.229Z,52.80
2019-02-14T06:23:02.501Z,58.25
2019-02-14T06:25:30.753Z,47.83
2019-02-14T06:27:59.013Z,54.42
2019-02-14T06:30:27.267Z,55.28
2019-02-14T06:32:55.534Z,64.10
2019-02-14T06:35:23.794Z,49.80
2019-02-14T06:40:53.621Z,49.23
2019-02-14T06:43:21.908Z,56.30
2019-02-14T06:45:50.156Z,50.97
2019-02-14T06:48:18.417Z,49.00
2019-02-14T06:50:46.681Z,52.60
2019-02-14T06:53:14.945Z,54.05
2019-02-14T06:55:43.202Z,56.57
2019-02-14T06:58:12.807Z,47.93
2019-02-14T07:00:41.443Z,65.53
2019-02-14T07:03:09.693Z,45.07
2019-02-14T07:05:37.963Z,57.37
2019-02-14T07:08:06.225Z,53.60
2019-02-14T07:10:46.710Z,54.30
2019-02-14T07:13:14.966Z,47.63
2019-02-14T07:15:43.233Z,55.37
2019-02-14T07:18:11.511Z,53.07
2019-02-14T07:20:39.781Z,54.80
2019-02-14T07:23:08.039Z,55.93
2019-02-14T07:25:36.331Z,59.87
2019-02-14T07:28:04.557Z,56.00
2019-02-14T07:31:06.647Z,56.60
2019-02-14T07:33:34.901Z,60.23
2019-02-14T07:36:03.157Z,58.60
2019-02-14T07:38:31.422Z,52.90
2019-02-14T07:40:59.690Z,55.13
2019-02-14T07:43:27.962Z,50.60
2019-02-14T07:45:56.265Z,56.05
2019-02-14T07:48:24.535Z,51.87
2019-02-14T07:50:52.794Z,61.70
2019-02-14T07:53:21.058Z,53.00
2019-02-14T07:55:49.329Z,60.33
2019-02-14T07:58:17.597Z,60.33
2019-02-14T08:00:45.861Z,52.25
2019-02-14T08:03:14.149Z,49.50
2019-02-14T08:05:42.419Z,64.40
2019-02-14T08:08:10.677Z,50.67
2019-02-14T08:10:38.937Z,56.63
2019-02-14T08:13:07.204Z,54.33
2019-02-14T08:15:35.500Z,58.47
2019-02-14T08:18:03.841Z,54.15
2019-02-14T08:20:32.085Z,56.73
2019-02-14T08:23:00.351Z,53.53
2019-02-14T08:25:48.013Z,56.63
2019-02-14T08:28:16.280Z,52.50
2019-02-14T08:30:44.541Z,53.87
2019-02-14T08:33:12.804Z,56.77
2019-02-14T08:35:41.069Z,55.70
2019-02-14T08:38:09.333Z,58.57
2019-02-14T08:40:37.592Z,58.27
2019-02-14T08:43:05.858Z,56.27
2019-02-14T08:45:34.114Z,52.77
2019-02-14T08:48:02.501Z,52.65
2019-02-14T08:50:30.780Z,48.68
2019-02-14T08:52:59.036Z,50.55
2019-02-14T08:55:27.291Z,58.33
2019-02-14T08:57:55.557Z,54.23
2019-02-14T09:00:23.820Z,51.28
2019-02-14T09:02:52.070Z,50.05
2019-02-14T09:05:20.342Z,55.67
2019-02-14T09:07:54.776Z,54.30
2019-02-14T09:10:18.592Z,52.13
2019-02-14T09:12:46.854Z,57.43
2019-02-14T09:15:26.714Z,52.40
2019-02-14T09:17:54.973Z,53.73
2019-02-14T09:20:23.220Z,52.20
2019-02-14T09:22:51.475Z,48.43
2019-02-14T09:25:19.740Z,51.90
2019-02-14T09:27:47.990Z,55.30
2019-02-14T09:30:16.320Z,53.35
2019-02-14T09:32:44.577Z,53.00
2019-02-14T09:35:52.869Z,49.73
2019-02-14T09:38:21.139Z,50.80
2019-02-14T09:40:49.386Z,52.30
2019-02-14T09:43:17.640Z,50.35
2019-02-14T09:45:45.892Z,55.87
2019-02-14T09:48:15.185Z,50.58
2019-02-14T09:50:43.448Z,47.95
2019-02-14T09:53:11.700Z,51.30
2019-02-14T09:55:39.955Z,51.10
2019-02-14T09:58:08.216Z,48.23
2019-02-14T10:00:36.470Z,48.77
2019-02-14T10:03:04.764Z,45.93
2019-02-14T10:05:33.010Z,49.40
2019-02-14T10:08:01.275Z,51.03
2019-02-14T10:10:29.530Z,50.20
2019-02-14T10:12:57.773Z,46.63
2019-02-14T10:15:26.035Z,46.15
2019-02-14T10:17:54.306Z,47.45
2019-02-14T10:20:22.562Z,44.73
2019-02-14T10:22:50.804Z,45.63
2019-02-14T10:25:19.078Z,46.83
2019-02-14T10:28:06.670Z,44.87
2019-02-14T10:30:34.942Z,46.45
2019-02-14T10:33:03.179Z,49.90
2019-02-14T10:35:31.450Z,47.43
2019-02-14T10:37:59.703Z,41.77
2019-02-14T10:40:27.972Z,45.47
2019-02-14T10:42:56.233Z,42.17
2019-02-14T10:45:24.554Z,45.13
2019-02-14T10:47:52.820Z,45.80
2019-02-14T10:50:21.079Z,42.17
2019-02-14T10:52:49.352Z,45.50
2019-02-14T10:55:17.615Z,46.53
2019-02-14T10:57:45.870Z,42.73
2019-02-14T11:00:33.468Z,39.63
2019-02-14T11:03:01.717Z,42.63
2019-02-14T11:05:29.973Z,43.90
2019-02-14T11:07:58.236Z,37.77
2019-02-14T11:10:26.498Z,39.90
2019-02-14T11:12:54.750Z,50.30
2019-02-14T11:16:03.036Z,37.90
2019-02-14T11:18:31.312Z,45.40
2019-02-14T11:20:59.575Z,40.17
2019-02-14T11:23:27.843Z,42.50
2019-02-14T11:25:56.118Z,38.27
2019-02-14T11:28:24.358Z,41.03
2019-02-14T11:30:52.606Z,44.00
2019-02-14T11:33:20.926Z,38.80
2019-02-14T11:35:49.132Z,34.80
2019-02-14T11:38:17.389Z,36.33
2019-02-14T11:40:45.642Z,36.60
2019-02-14T11:43:13.909Z,36.10
2019-02-14T11:45:42.167Z,31.20
2019-02-14T11:48:10.434Z,35.57
2019-02-14T11:50:38.693Z,32.30
2019-02-14T11:53:13.901Z,32.83
2019-02-14T11:55:36.926Z,31.20
2019-02-14T11:58:05.172Z,27.55
2019-02-14T12:00:33.434Z,32.27
2019-02-14T12:03:01.703Z,34.20
2019-02-14T12:05:29.977Z,31.13
2019-02-14T12:07:58.226Z,31.13
2019-02-14T12:10:26.507Z,31.25
2019-02-14T12:12:54.759Z,28.87
2019-02-14T12:18:24.581Z,34.47
2019-02-14T12:20:52.837Z,28.20
2019-02-14T12:23:21.084Z,26.30
2019-02-14T12:25:49.344Z,32.83
2019-02-14T12:28:36.941Z,27.93
2019-02-14T12:31:05.217Z,30.37
2019-02-14T12:33:33.486Z,28.90
2019-02-14T12:36:01.756Z,25.10
2019-02-14T12:38:30.018Z,29.80
2019-02-14T12:40:58.269Z,42.30
2019-02-14T12:43:26.547Z,25.30
2019-02-14T12:45:54.802Z,25.33
2019-02-14T12:48:23.071Z,22.70
2019-02-14T12:50:51.336Z,23.27
2019-02-14T12:53:19.596Z,23.63
2019-02-14T12:55:47.927Z,22.30
2019-02-14T12:58:16.181Z,18.33
2019-02-14T13:00:44.444Z,22.30
2019-02-14T13:03:12.732Z,23.03
2019-02-14T13:05:41.006Z,20.60
2019-02-14T13:08:09.278Z,19.80
2019-02-14T13:10:37.533Z,19.10
2019-02-14T13:13:05.801Z,21.47
2019-02-14T13:15:34.124Z,18.43
2019-02-14T13:18:02.396Z,17.60
2019-02-14T13:20:30.660Z,19.40
2019-02-14T13:22:59.237Z,19.15
2019-02-14T13:25:27.507Z,16.70
2019-02-14T13:27:55.774Z,14.65
2019-02-14T13:30:43.411Z,12.73
2019-02-14T13:33:11.646Z,19.42
2019-02-14T13:35:39.897Z,14.00
2019-02-14T13:38:27.497Z,13.73
2019-02-14T13:40:55.763Z,14.70
2019-02-14T13:43:25.855Z,15.90
2019-02-14T13:45:54.104Z,17.13
2019-02-14T13:48:22.366Z,13.13
2019-02-14T13:50:50.616Z,10.70
2019-02-14T13:53:18.880Z,12.70
2019-02-14T13:55:47.147Z,11.93
2019-02-14T13:58:15.410Z,12.03
2019-02-14T14:00:43.723Z,12.30
2019-02-14T14:03:11.973Z,11.35
2019-02-14T14:05:40.300Z,11.13
2019-02-14T14:08:08.551Z,11.07
2019-02-14T14:10:36.832Z,12.00
2019-02-14T14:13:05.112Z,11.70
2019-02-14T14:15:33.375Z,11.20
2019-02-14T14:18:20.988Z,11.77
2019-02-14T14:20:49.267Z,12.23
2019-02-14T14:23:17.531Z,12.07
2019-02-14T14:25:45.790Z,10.37
2019-02-14T14:28:14.059Z,11.83
2019-02-14T14:30:42.316Z,11.35
2019-02-14T14:33:10.578Z,12.37
2019-02-14T14:35:38.841Z,13.55
2019-02-14T14:38:07.097Z,11.93
2019-02-14T14:40:35.363Z,12.73
2019-02-14T14:48:50.876Z,11.27
2019-02-14T14:51:19.162Z,10.93
2019-02-14T14:53:47.420Z,11.97
2019-02-14T14:56:15.681Z,11.38
2019-02-14T14:58:45.573Z,12.77
2019-02-14T15:01:13.936Z,11.43
2019-02-14T15:03:42.543Z,11.10
2019-02-14T15:06:10.799Z,10.30
2019-02-14T15:08:39.060Z,12.00
2019-02-14T15:11:07.327Z,11.83
2019-02-14T15:13:35.576Z,10.90
2019-02-14T15:16:03.834Z,10.67
2019-02-14T15:18:32.093Z,10.93
2019-02-14T15:21:00.351Z,10.77
2019-02-14T15:23:28.620Z,13.83
2019-02-14T15:25:56.870Z,9.93
2019-02-14T15:28:25.130Z,11.45
2019-02-14T15:30:53.422Z,10.35
2019-02-14T15:33:21.669Z,13.23
2019-02-14T15:35:49.930Z,10.57
2019-02-14T15:38:18.177Z,12.13
2019-02-14T15:40:46.445Z,10.63
2019-02-14T15:43:15.078Z,13.28
2019-02-14T15:45:43.340Z,10.50
2019-02-14T15:48:11.618Z,12.90
2019-02-14T15:50:39.991Z,12.47
2019-02-14T15:53:08.221Z,11.05
2019-02-14T15:55:38.540Z,11.25
2019-02-14T15:58:07.178Z,12.20
2019-02-14T16:00:36.474Z,12.80
2019-02-14T16:03:04.723Z,11.83
2019-02-14T16:05:32.980Z,13.88
2019-02-14T16:08:02.909Z,10.30
2019-02-14T16:10:31.480Z,11.75
2019-02-14T16:13:13.976Z,10.50
2019-02-14T16:15:42.232Z,11.67
2019-02-14T16:18:10.521Z,10.97
2019-02-14T16:20:40.383Z,11.43
2019-02-14T16:23:21.376Z,11.70
2019-02-14T16:25:51.534Z,12.43
2019-02-14T16:28:19.623Z,12.10
2019-02-14T16:30:47.892Z,11.10
2019-02-14T16:33:16.132Z,10.37
2019-02-14T16:35:44.392Z,11.25
2019-02-14T16:38:14.054Z,11.07
2019-02-14T16:40:42.622Z,15.48
2019-02-14T16:43:10.885Z,12.63
2019-02-14T16:45:39.169Z,15.60
2019-02-14T16:48:07.433Z,10.87
2019-02-14T16:50:35.708Z,13.00
2019-02-14T16:53:03.964Z,13.50
2019-02-14T16:55:51.771Z,13.20
2019-02-14T16:58:20.177Z,11.90
2019-02-14T17:00:48.477Z,11.70
2019-02-14T17:03:16.688Z,12.95
2019-02-14T17:05:44.941Z,15.63
2019-02-14T17:08:13.226Z,14.63
2019-02-14T17:10:41.486Z,15.60
2019-02-14T17:13:09.741Z,13.93
2019-02-14T17:15:37.998Z,13.67
2019-02-14T17:18:06.263Z,15.13
2019-02-14T17:20:34.519Z,12.78
2019-02-14T17:23:02.776Z,12.27
2019-02-14T17:25:31.026Z,12.57
2019-02-14T17:27:59.288Z,13.80
2019-02-14T17:30:27.544Z,12.13
2019-02-14T17:32:55.799Z,14.30
2019-02-14T17:35:24.065Z,17.10
2019-02-14T17:37:52.326Z,13.70
2019-02-14T17:40:20.575Z,12.83
2019-02-14T17:42:48.848Z,17.30
2019-02-14T17:45:17.107Z,16.33
2019-02-14T17:47:45.375Z,13.80
2019-02-14T17:50:13.647Z,13.60
2019-02-14T17:52:41.899Z,14.83
2019-02-14T17:55:50.182Z,17.10
2019-02-14T17:58:18.444Z,17.00
2019-02-14T18:00:46.700Z,14.30
2019-02-14T18:03:14.949Z,15.23
2019-02-14T18:05:43.208Z,15.03
2019-02-14T18:08:11.471Z,13.43
2019-02-14T18:10:39.720Z,16.23
2019-02-14T18:13:07.981Z,17.20
2019-02-14T18:15:36.241Z,16.60
2019-02-14T18:18:04.550Z,17.62
2019-02-14T18:20:32.759Z,20.26
2019-02-14T18:23:01.049Z,24.63
2019-02-14T18:25:29.307Z,19.13
2019-02-14T18:27:57.577Z,16.80
2019-02-14T18:30:25.830Z,19.00
2019-02-14T18:32:54.100Z,17.50
2019-02-14T18:35:22.366Z,16.87
2019-02-14T18:37:50.648Z,17.40
2019-02-14T18:40:18.903Z,20.17
2019-02-14T18:43:27.190Z,19.93
2019-02-14T18:45:55.441Z,19.63
2019-02-14T18:48:23.709Z,20.40
2019-02-14T18:50:51.958Z,17.23
2019-02-14T18:53:20.218Z,19.70
2019-02-14T18:55:48.472Z,16.30
2019-02-14T18:58:25.837Z,27.73
2019-02-14T19:00:46.699Z,19.97
2019-02-14T19:03:14.952Z,20.07
2019-02-14T19:05:43.209Z,21.50
2019-02-14T19:08:11.469Z,22.40
2019-02-14T19:10:59.071Z,20.80
2019-02-14T19:13:27.316Z,17.93
2019-02-14T19:15:55.575Z,20.90
2019-02-14T19:18:23.844Z,21.33
2019-02-14T19:20:52.118Z,19.13
2019-02-14T19:23:23.954Z,16.40
2019-02-14T19:25:50.636Z,15.90
2019-02-14T19:28:18.903Z,22.32
2019-02-14T19:30:47.162Z,19.23
2019-02-14T19:33:15.451Z,17.20
2019-02-14T19:36:02.827Z,18.67
2019-02-14T19:38:31.087Z,18.37
2019-02-14T19:40:59.359Z,17.70
2019-02-14T19:43:27.615Z,16.53
2019-02-14T19:45:55.869Z,19.50
2019-02-14T19:48:24.143Z,16.77
2019-02-14T19:50:52.414Z,18.20
2019-02-14T19:53:20.660Z,18.13
2019-02-14T19:55:48.950Z,19.23
2019-02-14T19:58:17.161Z,17.50
2019-02-14T20:00:45.425Z,21.48
2019-02-14T20:03:13.686Z,16.60
2019-02-14T20:05:41.950Z,19.53
2019-02-14T20:08:10.236Z,17.33
2019-02-14T20:10:38.503Z,17.63
2019-02-14T20:13:06.779Z,23.42
2019-02-14T20:15:37.543Z,16.63
2019-02-14T20:18:05.009Z,18.50
2019-02-14T20:20:33.271Z,16.60
2019-02-14T20:23:01.542Z,19.77
2019-02-14T20:26:03.298Z,21.07
2019-02-14T20:28:31.573Z,19.97
2019-02-14T20:30:59.823Z,19.30
2019-02-14T20:33:28.997Z,18.02
2019-02-14T20:35:57.306Z,17.20
2019-02-14T20:38:25.525Z,17.95
2019-02-14T20:40:53.773Z,22.85
2019-02-14T20:43:22.051Z,18.37
2019-02-14T20:45:50.316Z,19.12
2019-02-14T20:48:18.598Z,18.57
2019-02-14T20:50:46.849Z,17.42
2019-02-14T20:53:15.112Z,20.17
2019-02-14T20:55:43.391Z,16.83
2019-02-14T20:58:11.653Z,19.90
2019-02-14T21:00:40.051Z,18.83
2019-02-14T21:03:08.309Z,18.92
2019-02-14T21:05:36.573Z,18.07
2019-02-14T21:08:04.831Z,20.70
2019-02-14T21:13:42.037Z,20.90
2019-02-14T21:16:10.292Z,23.50
2019-02-14T21:18:38.544Z,18.90
2019-02-14T21:21:06.816Z,19.20
2019-02-14T21:23:35.118Z,20.08
2019-02-14T21:26:03.351Z,17.40
2019-02-14T21:28:31.601Z,22.90
2019-02-14T21:30:59.873Z,21.57
2019-02-14T21:33:28.132Z,19.17
2019-02-14T21:35:56.395Z,22.00
2019-02-14T21:38:24.679Z,18.67
2019-02-14T21:40:52.952Z,18.80
2019-02-14T21:43:21.182Z,22.00
2019-02-14T21:45:49.455Z,22.13
2019-02-14T21:48:17.714Z,19.60
2019-02-14T21:50:46.114Z,19.43
2019-02-14T21:53:14.309Z,18.27
2019-02-14T21:55:42.945Z,21.52
2019-02-14T21:58:11.193Z,21.30
2019-02-14T22:00:39.467Z,21.30
2019-02-14T22:03:07.710Z,25.17
2019-02-14T22:05:35.977Z,19.12
2019-02-14T22:08:04.255Z,20.50
2019-02-14T22:10:32.516Z,23.87
2019-02-14T22:13:00.770Z,22.67
2019-02-14T22:16:02.891Z,22.23
2019-02-14T22:18:31.137Z,21.80
2019-02-14T22:20:59.401Z,20.57
2019-02-14T22:23:27.677Z,20.10
2019-02-14T22:25:55.932Z,21.40
2019-02-14T22:28:24.192Z,22.07
2019-02-14T22:30:52.467Z,23.52
2019-02-14T22:33:20.717Z,25.00
2019-02-14T22:35:48.976Z,26.57
2019-02-14T22:38:17.248Z,22.50
2019-02-14T22:40:45.499Z,25.60
2019-02-14T22:43:13.764Z,24.10
2019-02-14T22:45:42.021Z,25.32
2019-02-14T22:48:10.292Z,25.32
2019-02-14T22:50:38.544Z,22.53
2019-02-14T22:53:06.815Z,25.87
2019-02-14T22:55:35.092Z,25.73
2019-02-14T22:58:03.368Z,26.27
2019-02-14T23:01:11.641Z,25.63
2019-02-14T23:03:40.303Z,24.55
2019-02-14T23:06:08.579Z,21.70
2019-02-14T23:08:36.840Z,24.57
2019-02-14T23:11:05.097Z,25.73
2019-02-14T23:13:33.372Z,26.27
2019-02-14T23:16:01.628Z,27.30
2019-02-14T23:18:29.901Z,27.75
2019-02-14T23:20:58.160Z,23.13
2019-02-14T23:23:26.426Z,22.90
2019-02-14T23:25:54.704Z,30.40
2019-02-14T23:28:22.961Z,23.43
2019-02-14T23:30:51.230Z,28.53
2019-02-14T23:33:19.479Z,24.23
2019-02-14T23:35:47.731Z,27.55
2019-02-14T23:38:15.991Z,26.20
2019-02-14T23:40:44.268Z,28.60
2019-02-14T23:43:12.528Z,29.60
2019-02-14T23:45:40.802Z,24.80
2019-02-14T23:48:09.057Z,25.47
2019-02-14T23:50:37.355Z,22.90
2019-02-14T23:53:05.608Z,27.93
2019-02-14T23:55:33.868Z,22.70
2019-02-14T23:58:02.134Z,23.53
